Hadley, United Kingdom
Current Conditions -  °F | °C
As of 7:50 AM on Friday 31 Oct 2014 (Local Time) from EGOS Reporting Station
Haze Haze  
Wind Chill: 61°   Ceiling: 22000
Heat Index: 61°   Visibility: 4mi
Dew Point: 57°   Wind: 15mph
Humidity: 88%   Direction: 170°S
Pressure: 29.91"   Gusts: NA
Location:  52.7°N, 2.48°W
Report Text: EGOS 310750Z 17013KT 7000 HZ FEW160 BKN220 16/14 Q1013 WHT BECMG CAVOK BLU
Loading
Personal Weather Stations






























Interactive Weather Map New forecast layout! Learn more

10-Day Weather Forecast

Advertisements
Track Severe Weather on mobile